createdAt,value
2018-09-05T00:02:03.134Z,16.90
2018-09-05T00:04:32.106Z,16.90
2018-09-05T00:07:00.590Z,16.89
2018-09-05T00:09:29.334Z,16.88
2018-09-05T00:11:57.818Z,16.87
2018-09-05T00:14:26.545Z,16.85
2018-09-05T00:16:55.155Z,16.83
2018-09-05T00:19:23.672Z,16.81
2018-09-05T00:21:52.306Z,16.52
2018-09-05T00:24:20.924Z,16.80
2018-09-05T00:26:49.824Z,16.81
2018-09-05T00:29:18.361Z,16.78
2018-09-05T00:31:47.250Z,16.76
2018-09-05T00:34:16.024Z,16.74
2018-09-05T00:36:44.651Z,16.72
2018-09-05T00:39:13.187Z,16.72
2018-09-05T00:41:41.785Z,16.71
2018-09-05T00:44:10.638Z,16.69
2018-09-05T00:46:39.174Z,16.68
2018-09-05T00:49:07.820Z,16.39
2018-09-05T00:51:36.330Z,16.67
2018-09-05T00:54:05.013Z,16.66
2018-09-05T00:56:33.727Z,16.65
2018-09-05T00:59:02.302Z,16.63
2018-09-05T01:01:30.850Z,16.64
2018-09-05T01:03:59.627Z,16.63
2018-09-05T01:06:28.565Z,16.64
2018-09-05T01:08:57.118Z,16.62
2018-09-05T01:11:26.096Z,16.63
2018-09-05T01:13:54.554Z,16.63
2018-09-05T01:16:23.230Z,16.64
2018-09-05T01:18:51.845Z,16.65
2018-09-05T01:21:20.382Z,16.59
2018-09-05T01:23:48.916Z,16.66
2018-09-05T01:26:17.536Z,16.66
2018-09-05T01:28:46.178Z,16.66
2018-09-05T01:31:14.658Z,16.65
2018-09-05T01:33:43.278Z,16.30
2018-09-05T01:36:17.826Z,16.64
2018-09-05T01:38:46.386Z,16.61
2018-09-05T01:41:15.747Z,16.37
2018-09-05T01:43:44.790Z,16.61
2018-09-05T01:46:14.212Z,16.59
2018-09-05T01:48:42.730Z,16.56
2018-09-05T01:51:11.337Z,16.56
2018-09-05T01:53:39.913Z,16.54
2018-09-05T01:56:08.414Z,16.53
2018-09-05T01:58:37.090Z,16.42
2018-09-05T02:01:05.670Z,16.48
2018-09-05T02:03:34.632Z,16.03
2018-09-05T02:06:03.215Z,16.45
2018-09-05T02:08:32.154Z,16.44
2018-09-05T02:11:00.626Z,16.43
2018-09-05T02:13:29.235Z,16.44
2018-09-05T02:15:57.853Z,16.44
2018-09-05T02:18:26.380Z,16.43
2018-09-05T02:20:55.158Z,16.38
2018-09-05T02:23:23.706Z,16.39
2018-09-05T02:25:52.750Z,16.39
2018-09-05T02:28:21.381Z,16.39
2018-09-05T02:30:50.256Z,16.41
2018-09-05T02:33:18.735Z,16.40
2018-09-05T02:35:47.249Z,16.39
2018-09-05T02:38:15.921Z,16.38
2018-09-05T02:40:44.994Z,16.37
2018-09-05T02:43:17.966Z,16.35
2018-09-05T02:45:46.700Z,16.34
2018-09-05T02:48:15.337Z,16.36
2018-09-05T02:50:44.014Z,16.36
2018-09-05T02:53:12.675Z,16.36
2018-09-05T02:55:46.246Z,16.35
2018-09-05T02:58:14.717Z,16.36
2018-09-05T03:00:43.319Z,16.37
2018-09-05T03:03:11.822Z,16.37
2018-09-05T03:05:40.306Z,16.38
2018-09-05T03:08:09.086Z,16.37
2018-09-05T03:10:37.629Z,16.38
2018-09-05T03:13:06.527Z,16.33
2018-09-05T03:15:35.006Z,16.35
2018-09-05T03:18:03.868Z,16.35
2018-09-05T03:20:32.373Z,16.33
2018-09-05T03:23:00.982Z,16.33
2018-09-05T03:25:29.550Z,16.32
2018-09-05T03:27:58.043Z,16.33
2018-09-05T03:30:26.925Z,16.01
2018-09-05T03:32:55.392Z,16.32
2018-09-05T03:35:24.274Z,16.32
2018-09-05T03:37:52.726Z,16.31
2018-09-05T03:40:21.240Z,16.31
2018-09-05T03:42:49.826Z,16.30
2018-09-05T03:45:18.750Z,16.31
2018-09-05T03:47:47.318Z,15.87
2018-09-05T03:50:15.903Z,16.30
2018-09-05T03:52:44.827Z,15.76
2018-09-05T03:55:13.353Z,16.29
2018-09-05T03:57:42.278Z,16.29
2018-09-05T04:00:10.839Z,16.30
2018-09-05T04:02:39.557Z,16.31
2018-09-05T04:05:08.133Z,16.31
2018-09-05T04:07:36.635Z,16.32
2018-09-05T04:10:05.476Z,16.32
2018-09-05T04:12:38.379Z,16.30
2018-09-05T04:15:07.107Z,16.31
2018-09-05T04:17:35.590Z,16.31
2018-09-05T04:20:04.321Z,16.32
2018-09-05T04:22:34.033Z,16.33
2018-09-05T04:25:03.325Z,16.33
2018-09-05T04:27:31.826Z,16.32
2018-09-05T04:30:00.969Z,16.32
2018-09-05T04:32:29.469Z,16.32
2018-09-05T04:34:58.255Z,16.34
2018-09-05T04:37:26.714Z,16.34
2018-09-05T04:39:55.575Z,16.34
2018-09-05T04:42:24.197Z,16.35
2018-09-05T04:44:52.664Z,16.37
2018-09-05T04:47:21.190Z,16.39
2018-09-05T04:49:49.645Z,16.40
2018-09-05T04:52:18.542Z,16.43
2018-09-05T04:54:47.033Z,16.43
2018-09-05T04:57:16.148Z,16.46
2018-09-05T04:59:44.701Z,16.47
2018-09-05T05:02:13.454Z,16.50
2018-09-05T05:04:42.071Z,16.52
2018-09-05T05:07:10.610Z,16.54
2018-09-05T05:09:39.107Z,16.57
2018-09-05T05:12:07.630Z,16.59
2018-09-05T05:14:41.594Z,16.62
2018-09-05T05:17:11.570Z,16.65
2018-09-05T05:19:40.238Z,16.68
2018-09-05T05:22:09.182Z,16.71
2018-09-05T05:24:37.706Z,16.76
2018-09-05T05:27:55.055Z,16.84
2018-09-05T05:30:24.182Z,16.57
2018-09-05T05:32:52.978Z,16.92
2018-09-05T05:35:21.813Z,16.96
2018-09-05T05:37:56.430Z,17.01
2018-09-05T05:40:25.070Z,17.06
2018-09-05T05:42:53.654Z,17.11
2018-09-05T05:45:24.538Z,17.17
2018-09-05T05:47:53.136Z,17.21
2018-09-05T05:50:21.806Z,17.25
2018-09-05T05:52:50.310Z,17.30
2018-09-05T05:55:20.123Z,16.86
2018-09-05T05:57:48.677Z,17.38
2018-09-05T06:00:18.706Z,17.44
2018-09-05T06:02:47.186Z,17.51
2018-09-05T06:05:16.975Z,17.27
2018-09-05T06:07:45.566Z,17.60
2018-09-05T06:10:17.490Z,17.66
2018-09-05T06:12:46.374Z,17.71
2018-09-05T06:15:15.010Z,17.70
2018-09-05T06:17:43.801Z,17.77
2018-09-05T06:20:12.707Z,17.82
2018-09-05T06:22:41.264Z,17.87
2018-09-05T06:25:10.129Z,17.91
2018-09-05T06:27:38.733Z,17.96
2018-09-05T06:30:07.500Z,17.95
2018-09-05T06:32:36.135Z,17.99
2018-09-05T06:35:04.856Z,18.01
2018-09-05T06:37:33.703Z,18.09
2018-09-05T06:40:05.856Z,18.11
2018-09-05T06:42:37.986Z,18.14
2018-09-05T06:45:13.066Z,18.19
2018-09-05T06:47:47.642Z,18.00
2018-09-05T06:50:21.365Z,18.30
2018-09-05T06:52:52.698Z,18.33
2018-09-05T06:55:21.182Z,18.38
2018-09-05T06:57:49.778Z,18.45
2018-09-05T07:00:19.489Z,18.26
2018-09-05T07:02:48.315Z,18.66
2018-09-05T07:05:17.808Z,18.69
2018-09-05T07:07:46.482Z,18.69
2018-09-05T07:10:16.382Z,18.44
2018-09-05T07:12:45.258Z,18.75
2018-09-05T07:15:14.540Z,18.76
2018-09-05T07:17:43.024Z,18.77
2018-09-05T07:20:11.754Z,18.80
2018-09-05T07:22:40.335Z,18.89
2018-09-05T07:25:08.958Z,19.01
2018-09-05T07:27:37.591Z,19.08
2018-09-05T07:30:06.476Z,19.08
2018-09-05T07:32:35.654Z,19.19
2018-09-05T07:35:04.747Z,19.24
2018-09-05T07:37:33.556Z,19.28
2018-09-05T07:40:02.140Z,19.28
2018-09-05T07:42:31.024Z,19.25
2018-09-05T07:44:59.614Z,19.26
2018-09-05T07:47:28.230Z,19.29
2018-09-05T07:49:56.782Z,19.28
2018-09-05T07:52:25.304Z,19.32
2018-09-05T07:54:54.251Z,19.25
2018-09-05T07:57:22.816Z,19.30
2018-09-05T07:59:51.638Z,19.32
2018-09-05T08:02:20.142Z,19.28
2018-09-05T08:04:48.938Z,19.30
2018-09-05T08:07:17.575Z,19.34
2018-09-05T08:09:46.186Z,19.40
2018-09-05T08:12:14.890Z,19.56
2018-09-05T08:14:43.607Z,19.69
2018-09-05T08:17:12.933Z,19.82
2018-09-05T08:19:41.417Z,19.90
2018-09-05T08:22:10.611Z,20.00
2018-09-05T08:24:39.259Z,20.02
2018-09-05T08:27:07.950Z,19.81
2018-09-05T08:29:36.430Z,20.00
2018-09-05T08:32:05.022Z,20.03
2018-09-05T08:34:33.534Z,20.13
2018-09-05T08:37:02.193Z,20.19
2018-09-05T08:39:30.538Z,20.18
2018-09-05T08:41:59.169Z,20.34
2018-09-05T08:44:28.131Z,20.44
2018-09-05T08:46:56.549Z,20.52
2018-09-05T08:49:25.379Z,20.61
2018-09-05T08:51:53.843Z,20.62
2018-09-05T08:54:22.555Z,20.56
2018-09-05T08:56:51.113Z,20.59
2018-09-05T08:59:19.720Z,20.57
2018-09-05T09:01:48.350Z,20.38
2018-09-05T09:04:16.821Z,20.71
2018-09-05T09:06:45.715Z,20.73
2018-09-05T09:09:14.170Z,20.80
2018-09-05T09:11:42.865Z,20.81
2018-09-05T09:14:11.611Z,20.94
2018-09-05T09:16:40.226Z,21.10
2018-09-05T09:19:09.025Z,21.01
2018-09-05T09:21:37.538Z,21.26
2018-09-05T09:24:06.830Z,21.07
2018-09-05T09:26:35.403Z,21.37
2018-09-05T09:29:04.378Z,21.51
2018-09-05T09:31:32.898Z,21.73
2018-09-05T09:34:01.675Z,21.90
2018-09-05T09:36:30.146Z,22.08
2018-09-05T09:38:58.696Z,22.01
2018-09-05T09:41:27.466Z,21.92
2018-09-05T09:43:56.011Z,22.13
2018-09-05T09:46:24.981Z,22.16
2018-09-05T09:48:53.482Z,22.24
2018-09-05T09:51:23.485Z,22.18
2018-09-05T09:53:52.903Z,22.27
2018-09-05T09:56:22.024Z,22.41
2018-09-05T09:58:50.704Z,22.42
2018-09-05T10:01:24.522Z,22.47
2018-09-05T10:03:58.336Z,22.58
2018-09-05T10:06:32.146Z,22.67
2018-09-05T10:09:05.788Z,22.79
2018-09-05T10:11:39.431Z,22.74
2018-09-05T10:14:16.227Z,22.80
2018-09-05T10:16:50.461Z,22.89
2018-09-05T10:19:19.210Z,23.00
2018-09-05T10:21:47.770Z,23.15
2018-09-05T10:24:16.470Z,23.22
2018-09-05T10:26:45.160Z,23.20
2018-09-05T10:29:13.751Z,23.17
2018-09-05T10:31:42.507Z,23.01
2018-09-05T10:34:10.975Z,23.02
2018-09-05T10:36:40.721Z,23.07
2018-09-05T10:39:10.066Z,23.14
2018-09-05T10:41:40.348Z,23.02
2018-09-05T10:44:09.705Z,22.97
2018-09-05T10:46:39.205Z,22.96
2018-09-05T10:49:08.634Z,23.15
2018-09-05T10:51:43.167Z,23.23
2018-09-05T10:54:13.579Z,23.26
2018-09-05T10:56:42.790Z,23.37
2018-09-05T10:59:16.156Z,23.40
2018-09-05T11:01:45.950Z,23.35
2018-09-05T11:04:15.494Z,23.39
2018-09-05T11:06:44.932Z,23.46
2018-09-05T11:09:13.398Z,23.62
2018-09-05T11:11:43.765Z,23.65
2018-09-05T11:14:12.631Z,23.75
2018-09-05T11:16:43.154Z,23.80
2018-09-05T11:19:12.386Z,23.79
2018-09-05T11:21:41.593Z,23.89
2018-09-05T11:24:11.093Z,23.82
2018-09-05T11:26:39.741Z,23.81
2018-09-05T11:29:08.429Z,23.74
2018-09-05T11:31:36.966Z,23.68
2018-09-05T11:34:07.677Z,23.74
2018-09-05T11:36:37.101Z,23.71
2018-09-05T11:39:09.466Z,23.80
2018-09-05T11:41:40.389Z,23.84
2018-09-05T11:44:15.099Z,23.77
2018-09-05T11:46:47.560Z,23.78
2018-09-05T11:49:23.776Z,23.83
2018-09-05T11:51:57.396Z,23.59
2018-09-05T11:54:28.519Z,23.85
2018-09-05T11:57:01.158Z,23.91
2018-09-05T11:59:32.972Z,23.86
2018-09-05T12:02:19.292Z,23.80
2018-09-05T12:04:53.295Z,23.86
2018-09-05T12:07:23.700Z,23.87
2018-09-05T12:09:58.153Z,24.03
2018-09-05T12:12:29.413Z,24.13
2018-09-05T12:15:02.032Z,24.11
2018-09-05T12:17:34.747Z,24.15
2018-09-05T12:20:10.099Z,24.12
2018-09-05T12:22:40.520Z,24.18
2018-09-05T12:25:12.556Z,23.88
2018-09-05T12:27:41.928Z,23.95
2018-09-05T12:30:10.608Z,23.91
2018-09-05T12:32:40.423Z,23.89
2018-09-05T12:35:08.966Z,23.96
2018-09-05T12:37:37.554Z,23.99
2018-09-05T12:40:06.337Z,24.04
2018-09-05T12:42:34.971Z,24.05
2018-09-05T12:45:03.672Z,24.09
2018-09-05T12:47:32.267Z,24.20
2018-09-05T12:50:01.530Z,24.18
2018-09-05T12:52:30.103Z,24.02
2018-09-05T12:54:58.987Z,23.97
2018-09-05T12:57:27.579Z,24.09
2018-09-05T12:59:56.530Z,24.05
2018-09-05T13:02:25.066Z,24.04
2018-09-05T13:04:55.512Z,23.92
2018-09-05T13:07:23.969Z,23.90
2018-09-05T13:09:52.585Z,23.98
2018-09-05T13:12:21.941Z,24.02
2018-09-05T13:14:50.470Z,24.00
2018-09-05T13:17:19.158Z,23.73
2018-09-05T13:19:47.795Z,23.88
2018-09-05T13:22:18.846Z,23.93
2018-09-05T13:24:47.337Z,24.07
2018-09-05T13:27:17.023Z,24.23
2018-09-05T13:29:49.211Z,24.24
2018-09-05T13:32:17.755Z,24.23
2018-09-05T13:34:46.357Z,24.38
2018-09-05T13:37:14.940Z,24.62
2018-09-05T13:39:43.470Z,24.57
2018-09-05T13:42:12.250Z,24.36
2018-09-05T13:44:40.888Z,24.32
2018-09-05T13:47:10.529Z,24.29
2018-09-05T13:49:39.099Z,24.10
2018-09-05T13:52:09.902Z,24.20
2018-09-05T13:54:38.505Z,24.23
2018-09-05T13:57:07.275Z,24.25
2018-09-05T13:59:36.398Z,24.15
2018-09-05T14:02:05.094Z,24.01
2018-09-05T14:04:33.689Z,24.02
2018-09-05T14:07:02.180Z,24.02
2018-09-05T14:09:31.378Z,23.75
2018-09-05T14:12:00.591Z,23.60
2018-09-05T14:14:29.843Z,23.65
2018-09-05T14:16:58.348Z,23.70
2018-09-05T14:19:27.306Z,23.75
2018-09-05T14:21:55.895Z,23.75
2018-09-05T14:24:24.828Z,23.73
2018-09-05T14:26:53.691Z,23.61
2018-09-05T14:29:22.730Z,23.73
2018-09-05T14:31:51.478Z,23.91
2018-09-05T14:34:20.116Z,23.98
2018-09-05T14:36:49.693Z,24.02
2018-09-05T14:39:18.364Z,24.00
2018-09-05T14:41:47.531Z,23.66
2018-09-05T14:44:16.507Z,24.03
2018-09-05T14:46:45.109Z,23.82
2018-09-05T14:49:14.148Z,23.82
2018-09-05T14:51:42.867Z,23.74
2018-09-05T14:54:12.163Z,23.58
2018-09-05T14:56:41.455Z,23.69
2018-09-05T14:59:09.975Z,23.79
2018-09-05T15:01:38.883Z,23.76
2018-09-05T15:04:08.243Z,23.68
2018-09-05T15:06:36.802Z,23.80
2018-09-05T15:09:08.515Z,23.90
2018-09-05T15:11:37.493Z,23.81
2018-09-05T15:14:06.127Z,23.75
2018-09-05T15:16:35.624Z,23.66
2018-09-05T15:19:04.210Z,23.72
2018-09-05T15:21:32.797Z,23.77
2018-09-05T15:24:02.042Z,23.63
2018-09-05T15:26:31.146Z,23.61
2018-09-05T15:28:59.974Z,22.83
2018-09-05T15:31:28.597Z,23.43
2018-09-05T15:33:57.689Z,23.22
2018-09-05T15:36:26.272Z,23.47
2018-09-05T15:38:54.931Z,23.46
2018-09-05T15:41:24.282Z,23.47
2018-09-05T15:46:21.385Z,23.45
2018-09-05T15:48:49.968Z,23.38
2018-09-05T15:51:18.470Z,23.36
2018-09-05T15:53:46.984Z,23.26
2018-09-05T15:56:15.856Z,22.90
2018-09-05T15:58:44.439Z,23.17
2018-09-05T16:01:14.338Z,23.11
2018-09-05T16:03:42.882Z,23.13
2018-09-05T16:06:11.518Z,23.10
2018-09-05T16:08:41.014Z,23.01
2018-09-05T16:11:10.491Z,22.92
2018-09-05T16:13:40.158Z,22.92
2018-09-05T16:16:08.801Z,22.90
2018-09-05T16:18:37.427Z,22.93
2018-09-05T16:21:06.230Z,22.91
2018-09-05T16:23:34.790Z,22.85
2018-09-05T16:26:03.629Z,22.78
2018-09-05T16:28:32.453Z,22.73
2018-09-05T16:31:00.958Z,22.66
2018-09-05T16:33:29.651Z,22.33
2018-09-05T16:35:58.322Z,22.54
2018-09-05T16:38:28.041Z,22.47
2018-09-05T16:40:56.604Z,22.41
2018-09-05T16:43:25.631Z,22.34
2018-09-05T16:45:54.155Z,22.22
2018-09-05T16:48:22.785Z,22.08
2018-09-05T16:50:51.466Z,21.83
2018-09-05T16:53:19.934Z,21.92
2018-09-05T16:55:48.970Z,21.82
2018-09-05T16:58:17.578Z,21.73
2018-09-05T17:00:46.531Z,21.63
2018-09-05T17:03:15.027Z,21.59
2018-09-05T17:05:43.709Z,21.53
2018-09-05T17:08:12.226Z,21.47
2018-09-05T17:10:40.746Z,21.43
2018-09-05T17:13:09.570Z,21.08
2018-09-05T17:15:38.098Z,21.26
2018-09-05T17:18:06.910Z,21.18
2018-09-05T17:20:35.511Z,21.12
2018-09-05T17:23:04.804Z,21.07
2018-09-05T17:25:33.354Z,21.02
2018-09-05T17:28:02.210Z,20.92
2018-09-05T17:30:30.690Z,20.83
2018-09-05T17:32:59.234Z,20.76
2018-09-05T17:35:28.002Z,20.44
2018-09-05T17:37:56.638Z,20.64
2018-09-05T17:40:25.994Z,20.59
2018-09-05T17:42:54.594Z,20.53
2018-09-05T17:45:24.295Z,20.48
2018-09-05T17:47:52.944Z,20.36
2018-09-05T17:50:21.911Z,20.31
2018-09-05T17:52:50.470Z,20.23
2018-09-05T17:55:19.054Z,20.17
2018-09-05T17:57:47.635Z,20.10
2018-09-05T18:00:16.233Z,20.06
2018-09-05T18:02:45.586Z,20.04
2018-09-05T18:05:15.035Z,19.92
2018-09-05T18:07:44.987Z,19.92
2018-09-05T18:10:13.606Z,19.85
2018-09-05T18:12:43.134Z,19.78
2018-09-05T18:15:11.604Z,19.67
2018-09-05T18:17:40.510Z,18.97
2018-09-05T18:20:09.036Z,19.50
2018-09-05T18:22:38.485Z,19.42
2018-09-05T18:25:07.485Z,19.34
2018-09-05T18:27:36.514Z,19.28
2018-09-05T18:30:05.239Z,19.22
2018-09-05T18:32:33.840Z,19.14
2018-09-05T18:35:03.946Z,19.07
2018-09-05T18:37:32.656Z,18.97
2018-09-05T18:40:01.272Z,18.88
2018-09-05T18:42:29.774Z,18.81
2018-09-05T18:44:58.346Z,18.75
2018-09-05T18:47:26.919Z,18.69
2018-09-05T18:49:55.609Z,18.62
2018-09-05T18:52:24.203Z,18.53
2018-09-05T18:54:53.204Z,18.46
2018-09-05T18:57:21.764Z,18.38
2018-09-05T18:59:50.393Z,18.31
2018-09-05T19:02:19.095Z,18.26
2018-09-05T19:04:47.850Z,18.18
2018-09-05T19:07:16.678Z,18.11
2018-09-05T19:09:45.168Z,18.05
2018-09-05T19:12:13.812Z,17.94
2018-09-05T19:14:42.293Z,17.90
2018-09-05T19:17:11.026Z,17.57
2018-09-05T19:19:39.634Z,17.81
2018-09-05T19:22:08.387Z,17.77
2018-09-05T19:24:36.999Z,17.73
2018-09-05T19:27:05.632Z,17.71
2018-09-05T19:29:34.178Z,17.67
2018-09-05T19:32:02.665Z,17.60
2018-09-05T19:34:31.499Z,16.92
2018-09-05T19:37:00.266Z,17.56
2018-09-05T19:39:28.912Z,17.55
2018-09-05T19:41:57.539Z,17.55
2018-09-05T19:44:26.127Z,17.54
2018-09-05T19:46:54.664Z,17.53
2018-09-05T19:49:23.333Z,17.53
2018-09-05T19:51:52.019Z,17.54
2018-09-05T19:54:20.959Z,17.47
2018-09-05T19:56:49.669Z,17.55
2018-09-05T19:59:18.310Z,17.55
2018-09-05T20:01:46.935Z,17.58
2018-09-05T20:04:15.480Z,17.61
2018-09-05T20:06:44.178Z,17.63
2018-09-05T20:09:12.855Z,17.65
2018-09-05T20:11:41.410Z,17.68
2018-09-05T20:14:10.224Z,17.69
2018-09-05T20:16:38.790Z,17.70
2018-09-05T20:19:07.381Z,17.69
2018-09-05T20:21:35.986Z,17.68
2018-09-05T20:24:04.578Z,17.64
2018-09-05T20:26:34.166Z,17.49
2018-09-05T20:29:02.813Z,17.56
2018-09-05T20:31:31.690Z,17.52
2018-09-05T20:34:00.223Z,17.48
2018-09-05T20:36:29.002Z,17.45
2018-09-05T20:38:57.809Z,17.40
2018-09-05T20:41:26.651Z,17.35
2018-09-05T20:43:55.230Z,17.31
2018-09-05T20:46:23.786Z,17.26
2018-09-05T20:48:52.308Z,17.21
2018-09-05T20:51:20.890Z,17.15
2018-09-05T20:53:49.604Z,17.14
2018-09-05T20:56:18.248Z,17.10
2018-09-05T20:58:47.542Z,17.08
2018-09-05T21:01:16.130Z,17.04
2018-09-05T21:03:44.699Z,17.02
2018-09-05T21:06:13.241Z,16.98
2018-09-05T21:08:41.909Z,16.96
2018-09-05T21:11:10.665Z,16.94
2018-09-05T21:13:39.599Z,16.93
2018-09-05T21:16:08.162Z,16.89
2018-09-05T21:18:36.642Z,16.87
2018-09-05T21:21:05.454Z,16.86
2018-09-05T21:23:34.094Z,16.85
2018-09-05T21:26:02.898Z,16.82
2018-09-05T21:28:31.631Z,16.61
2018-09-05T21:31:00.590Z,16.76
2018-09-05T21:33:29.746Z,16.72
2018-09-05T21:35:58.412Z,16.72
2018-09-05T21:38:27.078Z,16.72
2018-09-05T21:40:55.549Z,16.71
2018-09-05T21:43:24.129Z,16.71
2018-09-05T21:45:52.775Z,16.69
2018-09-05T21:48:21.642Z,16.70
2018-09-05T21:50:50.164Z,16.69
2018-09-05T21:53:18.710Z,16.66
2018-09-05T21:55:47.246Z,16.64
2018-09-05T21:58:15.814Z,16.63
2018-09-05T22:00:44.442Z,16.54
2018-09-05T22:03:12.955Z,16.61
2018-09-05T22:05:41.743Z,16.60
2018-09-05T22:08:10.270Z,16.61
2018-09-05T22:10:38.982Z,16.60
2018-09-05T22:13:07.534Z,16.61
2018-09-05T22:15:41.858Z,16.63
2018-09-05T22:18:10.441Z,16.60
2018-09-05T22:20:39.455Z,16.32
2018-09-05T22:23:08.618Z,16.54
2018-09-05T22:25:37.550Z,16.48
2018-09-05T22:28:06.042Z,16.43
2018-09-05T22:30:34.906Z,16.38
2018-09-05T22:33:04.390Z,16.35
2018-09-05T22:35:33.050Z,16.34
2018-09-05T22:38:01.514Z,16.32
2018-09-05T22:40:31.457Z,16.31
2018-09-05T22:43:12.121Z,16.29
2018-09-05T22:45:51.836Z,16.27
2018-09-05T22:48:37.390Z,16.09
2018-09-05T22:54:26.507Z,16.25
2018-09-05T22:57:48.251Z,16.14
2018-09-05T23:01:25.318Z,15.73
2018-09-05T23:04:27.131Z,16.01
2018-09-05T23:09:07.843Z,15.96
2018-09-05T23:11:53.603Z,15.94
2018-09-05T23:14:33.273Z,15.93
2018-09-05T23:19:22.331Z,15.91
2018-09-05T23:21:50.903Z,15.84
2018-09-05T23:24:19.455Z,15.79
2018-09-05T23:26:48.055Z,15.76
2018-09-05T23:29:16.799Z,15.74
2018-09-05T23:31:45.267Z,15.70
2018-09-05T23:34:14.000Z,15.70
2018-09-05T23:36:42.591Z,15.70
2018-09-05T23:39:11.259Z,15.69
2018-09-05T23:41:39.744Z,15.69
2018-09-05T23:44:08.351Z,15.68
2018-09-05T23:46:37.015Z,15.42
2018-09-05T23:49:05.597Z,15.68
2018-09-05T23:51:34.348Z,15.08
2018-09-05T23:54:02.951Z,15.68
2018-09-05T23:56:31.715Z,15.67
2018-09-05T23:59:04.393Z,15.68
